Time;durP1;ratioP1;P1;durP2;ratioP2;P2;SDS_P1;SDS_P2;PMS_P1;PMS_P2;Temp;Humidity;BMP_temperature;BMP_pressure;BME280_temperature;BME280_humidity;BME280_pressure;Samples;Min_cycle;Max_cycle;Signal;HPM_P1;HPM_P2
2021/08/28 00:00:51;;;;;;;6.78;6.18;;;;;;;17.93;53.81;95288.78;5030434;28;20029;-75
2021/08/28 00:03:18;;;;;;;6.80;6.18;;;;;;;18.86;52.80;95314.41;5030357;28;20523;-74
2021/08/28 00:05:44;;;;;;;6.85;6.25;;;;;;;17.37;55.87;95290.75;5028795;28;20034;-74
2021/08/28 00:08:09;;;;;;;10.63;7.10;;;;;;;17.15;57.13;95292.84;5028746;28;20044;-74
2021/08/28 00:10:35;;;;;;;6.97;6.18;;;;;;;17.12;57.27;95296.22;5045147;28;20078;-74
2021/08/28 00:13:00;;;;;;;7.30;6.60;;;;;;;17.36;56.45;95275.75;5030836;28;20033;-75
2021/08/28 00:15:26;;;;;;;7.38;6.68;;;;;;;17.17;58.30;95323.97;5028172;28;20044;-73
2021/08/28 00:17:51;;;;;;;7.57;6.68;;;;;;;17.19;57.37;95292.16;5029633;28;20052;-74
2021/08/28 00:20:16;;;;;;;7.63;6.65;;;;;;;17.47;57.50;95321.75;5029017;28;20128;-75
2021/08/28 00:22:42;;;;;;;7.05;6.38;;;;;;;17.19;57.82;95292.94;5030013;28;20169;-73
2021/08/28 00:25:08;;;;;;;7.22;6.38;;;;;;;16.63;59.47;95303.56;5031988;28;20037;-75
2021/08/28 00:27:34;;;;;;;7.20;6.45;;;;;;;17.29;57.43;95289.75;5029509;28;20124;-74
2021/08/28 00:29:59;;;;;;;8.13;7.32;;;;;;;17.32;57.62;95296.38;5030085;28;20739;-73
2021/08/28 00:32:25;;;;;;;8.00;7.15;;;;;;;16.85;58.85;95275.47;5045156;28;20029;-73
2021/08/28 00:34:50;;;;;;;7.82;7.05;;;;;;;16.64;59.62;95264.88;5044562;28;20037;-74
2021/08/28 00:37:16;;;;;;;7.78;6.80;;;;;;;16.60;60.94;95283.56;5046981;28;20034;-73
2021/08/28 00:39:41;;;;;;;8.10;7.22;;;;;;;15.70;61.80;95224.78;5028374;28;20045;-74
2021/08/28 00:42:06;;;;;;;7.38;6.60;;;;;;;16.61;60.99;95301.22;5027606;28;20390;-73
2021/08/28 00:44:32;;;;;;;7.97;7.30;;;;;;;16.54;59.91;95225.06;5027626;28;20050;-73
2021/08/28 00:46:57;;;;;;;7.32;6.63;;;;;;;16.30;61.69;95276.88;5044206;28;20060;-73
2021/08/28 00:49:23;;;;;;;9.25;6.70;;;;;;;15.81;62.38;95226.66;5031243;28;20033;-73
2021/08/28 00:51:49;;;;;;;7.82;6.53;;;;;;;16.02;62.77;95271.38;5028226;28;20503;-72
2021/08/28 00:54:14;;;;;;;6.88;6.28;;;;;;;16.22;62.06;95237.50;5029275;28;20128;-73
2021/08/28 00:56:40;;;;;;;7.88;7.18;;;;;;;16.40;60.91;95228.09;5028493;28;20036;-73
2021/08/28 00:59:05;;;;;;;8.07;7.28;;;;;;;16.67;61.39;95266.09;5043908;28;20530;-72
2021/08/28 01:01:40;;;;;;;6.88;6.30;;;;;;;17.01;59.73;95252.13;5044276;28;20041;-73
2021/08/28 01:04:09;;;;;;;7.30;6.60;;;;;;;16.67;60.85;95255.34;5046188;28;20017;-73
2021/08/28 01:07:11;;;;;;;7.93;7.10;;;;;;;17.28;59.86;95292.78;5028694;28;20042;-73
2021/08/28 01:09:39;;;;;;;6.73;6.03;;;;;;;17.62;58.52;95307.53;4986867;28;20535;-73
2021/08/28 01:12:06;;;;;;;6.68;6.05;;;;;;;17.30;59.27;95259.09;5027135;28;20073;-73
2021/08/28 01:14:34;;;;;;;6.63;6.03;;;;;;;17.50;58.53;95273.41;5028947;28;20073;-73
2021/08/28 01:17:07;;;;;;;6.65;6.05;;;;;;;16.98;60.04;95290.44;5044055;28;20041;-72
2021/08/28 01:19:35;;;;;;;6.85;6.25;;;;;;;16.78;60.74;95294.06;5027368;28;20526;-72
2021/08/28 01:22:04;;;;;;;7.22;6.53;;;;;;;17.37;58.97;95280.78;5030807;28;20029;-73
2021/08/28 01:24:30;;;;;;;5.85;5.28;;;;;;;16.82;60.76;95278.84;5028663;28;20030;-72
2021/08/28 01:27:04;;;;;;;6.93;6.30;;;;;;;16.75;61.47;95295.53;5027954;28;20037;-74
2021/08/28 01:29:32;;;;;;;17.23;7.15;;;;;;;17.18;59.92;95286.00;5027239;28;20395;-73
2021/08/28 01:31:59;;;;;;;10.15;9.07;;;;;;;17.11;60.10;95246.28;5028324;28;20044;-73
2021/08/28 01:34:26;;;;;;;11.38;9.60;;;;;;;17.31;59.53;95252.56;5029426;28;20034;-74
2021/08/28 01:36:53;;;;;;;13.60;10.25;;;;;;;15.88;62.25;95215.41;5028784;28;20069;-73
2021/08/28 01:39:19;;;;;;;21.60;14.80;;;;;;;16.64;62.75;95297.88;5028692;28;20514;-73
2021/08/28 01:41:48;;;;;;;30.38;16.60;;;;;;;16.08;63.83;95238.66;5028156;28;20041;-74
2021/08/28 01:44:15;;;;;;;30.98;17.27;;;;;;;15.97;64.60;95263.56;5026963;28;20373;-73
2021/08/28 01:46:42;;;;;;;33.05;18.30;;;;;;;16.66;63.39;95283.31;5028414;28;20515;-74
2021/08/28 01:49:09;;;;;;;30.13;18.67;;;;;;;16.70;63.58;95289.59;5030943;28;20060;-73
2021/08/28 01:51:36;;;;;;;33.53;19.83;;;;;;;16.61;63.76;95287.81;5028212;28;20471;-73
2021/08/28 01:54:01;;;;;;;35.60;19.95;;;;;;;16.63;62.13;95217.63;5028258;28;20083;-74
2021/08/28 01:56:27;;;;;;;38.40;20.45;;;;;;;16.00;63.24;95201.97;5026186;28;20408;-73
2021/08/28 01:58:53;;;;;;;35.08;19.48;;;;;;;16.13;63.44;95210.03;5026910;28;20057;-74
2021/08/28 02:01:19;;;;;;;30.80;19.20;;;;;;;16.19;64.15;95262.34;5029330;28;20021;-73
2021/08/28 02:03:44;;;;;;;44.30;20.45;;;;;;;16.47;63.42;95247.09;5027299;28;20034;-74
2021/08/28 02:06:35;;;;;;;52.67;21.73;;;;;;;17.08;61.91;95246.94;5027643;28;20079;-74
2021/08/28 02:09:17;;;;;;;38.92;20.48;;;;;;;16.61;62.79;95262.84;5012579;28;20042;-75
2021/08/28 02:12:02;;;;;;;43.30;22.42;;;;;;;16.07;63.05;95169.19;5027083;28;20049;-75
2021/08/28 02:15:00;;;;;;;60.50;25.95;;;;;;;17.52;62.75;95292.69;5028371;28;20045;-73
2021/08/28 02:17:28;;;;;;;67.93;27.88;;;;;;;17.82;61.32;95222.38;5012759;28;20034;-74
2021/08/28 02:20:01;;;;;;;66.55;27.35;;;;;;;18.15;60.35;95211.22;5032746;28;20038;-74
2021/08/28 02:22:30;;;;;;;67.10;28.98;;;;;;;18.64;59.62;95265.41;5031971;28;20034;-74
2021/08/28 02:25:02;;;;;;;45.15;24.42;;;;;;;17.81;59.81;95248.50;5032781;28;20025;-75
2021/08/28 02:27:29;;;;;;;;;;;;;;;18.53;59.04;95288.66;5030055;28;20040;-78
2021/08/28 02:29:59;;;;;;;69.30;28.10;;;;;;;18.26;59.47;95243.75;5047655;28;19924;-75
2021/08/28 02:32:27;;;;;;;62.40;28.52;;;;;;;18.45;59.97;95216.88;5032388;28;20344;-74
2021/08/28 02:34:55;;;;;;;57.25;25.80;;;;;;;18.62;58.43;95248.03;5032166;28;20037;-74
2021/08/28 02:37:23;;;;;;;44.38;24.13;;;;;;;18.16;59.16;95272.78;5049693;28;20036;-74
2021/08/28 02:39:50;;;;;;;48.88;24.60;;;;;;;17.89;59.74;95279.81;5031632;28;20116;-74
2021/08/28 02:42:16;;;;;;;45.20;23.30;;;;;;;17.46;60.76;95242.19;5031382;28;20129;-74
2021/08/28 02:44:44;;;;;;;50.20;24.98;;;;;;;17.43;61.05;95281.28;5031670;28;20038;-73
2021/08/28 02:47:12;;;;;;;48.70;25.25;;;;;;;17.09;61.08;95251.19;5029239;28;20511;-73
2021/08/28 02:49:39;;;;;;;58.00;26.33;;;;;;;17.17;60.82;95236.06;5028292;28;20029;-72
2021/08/28 02:52:06;;;;;;;50.10;24.23;;;;;;;16.96;62.39;95255.06;5033694;28;20105;-73
2021/08/28 02:54:34;;;;;;;56.50;25.75;;;;;;;17.90;61.56;95277.91;5029873;28;20121;-74
2021/08/28 02:57:00;;;;;;;58.78;24.60;;;;;;;17.52;61.70;95265.00;5030693;28;20040;-72
2021/08/28 02:59:28;;;;;;;46.05;21.50;;;;;;;16.86;62.11;95236.75;5030971;28;20033;-72
2021/08/28 03:01:53;;;;;;;54.15;24.13;;;;;;;17.75;60.59;95254.47;5030952;28;20034;-72
2021/08/28 03:04:22;;;;;;;54.95;25.58;;;;;;;17.77;60.30;95209.19;5032006;28;20472;-71
2021/08/28 03:06:49;;;;;;;64.85;27.63;;;;;;;18.19;59.08;95269.41;5031004;28;20119;-72
2021/08/28 03:09:18;;;;;;;64.22;26.48;;;;;;;18.19;60.36;95269.41;5031134;28;20052;-71
2021/08/28 03:11:44;;;;;;;65.90;27.45;;;;;;;17.98;60.18;95217.75;5030846;28;20052;-71
2021/08/28 03:14:10;;;;;;;55.67;25.73;;;;;;;18.29;59.73;95251.94;5029272;28;20525;-71
2021/08/28 03:16:41;;;;;;;56.53;24.85;;;;;;;18.09;59.71;95258.38;5030481;28;20025;-71
2021/08/28 03:19:08;;;;;;;43.63;23.25;;;;;;;18.14;58.90;95282.34;5031986;28;20010;-73
2021/08/28 03:21:36;;;;;;;50.92;22.20;;;;;;;18.05;59.58;95252.13;5031002;28;20392;-71
2021/08/28 03:24:03;;;;;;;39.78;21.38;;;;;;;18.17;59.74;95263.59;5029615;28;20076;-77
2021/08/28 03:26:30;;;;;;;47.25;21.92;;;;;;;17.95;60.31;95248.06;5029020;28;20049;-74
2021/08/28 03:28:57;;;;;;;48.05;23.48;;;;;;;18.42;59.18;95228.34;5029449;28;20045;-73
2021/08/28 03:31:24;;;;;;;40.95;21.52;;;;;;;17.80;58.88;95187.72;5031741;28;20030;-73
2021/08/28 03:33:53;;;;;;;51.55;22.92;;;;;;;17.35;60.16;95210.44;5029993;28;20067;-73
2021/08/28 03:36:19;;;;;;;45.45;21.98;;;;;;;17.94;59.84;95254.56;5029424;28;20030;-72
2021/08/28 03:38:45;;;;;;;40.80;20.73;;;;;;;17.74;59.17;95174.91;5029354;28;20041;-73
2021/08/28 03:41:11;;;;;;;47.28;21.23;;;;;;;17.92;59.40;95248.75;5030520;28;20060;-74
2021/08/28 03:43:37;;;;;;;36.75;20.02;;;;;;;18.07;59.42;95188.75;5030027;28;20108;-72
2021/08/28 03:46:06;;;;;;;44.70;21.08;;;;;;;18.51;58.87;95230.84;5030837;28;20523;-73
2021/08/28 03:48:32;;;;;;;46.25;21.08;;;;;;;18.02;58.51;95183.63;5030543;28;20119;-73
2021/08/28 03:50:58;;;;;;;42.53;20.48;;;;;;;18.04;58.75;95256.72;5045936;28;20558;-73
2021/08/28 03:53:24;;;;;;;42.05;20.38;;;;;;;17.90;59.92;95245.63;5030846;28;20033;-73
2021/08/28 03:55:49;;;;;;;38.00;18.80;;;;;;;17.36;59.79;95192.41;5030014;28;20038;-74
2021/08/28 03:58:15;;;;;;;40.40;20.38;;;;;;;17.43;61.17;95195.25;5030859;28;20083;-73
2021/08/28 04:00:40;;;;;;;34.33;19.00;;;;;;;17.58;60.66;95212.53;5028862;28;20049;-73
2021/08/28 04:03:05;;;;;;;38.05;18.70;;;;;;;17.66;60.81;95247.34;5030043;28;20571;-73
2021/08/28 04:05:31;;;;;;;55.92;24.58;;;;;;;18.49;59.81;95255.47;5045572;28;20538;-72
2021/08/28 04:07:56;;;;;;;62.20;25.00;;;;;;;18.50;59.82;95211.22;5030087;28;20508;-73
2021/08/28 04:10:21;;;;;;;49.08;22.45;;;;;;;18.52;58.49;95253.97;5048009;28;20463;-73
2021/08/28 04:12:47;;;;;;;42.88;20.85;;;;;;;17.80;59.94;95203.09;5029623;28;20033;-73
2021/08/28 04:15:12;;;;;;;73.75;25.73;;;;;;;18.54;59.71;95246.31;5029987;28;20045;-75
2021/08/28 04:17:37;;;;;;;48.20;21.92;;;;;;;18.23;60.07;95244.47;5030138;28;20740;-76
2021/08/28 04:20:04;;;;;;;44.45;21.33;;;;;;;17.22;61.16;95235.81;5029018;28;20490;-73
2021/08/28 04:22:30;;;;;;;45.35;21.92;;;;;;;17.41;62.73;95251.28;5029111;28;20125;-74
2021/08/28 04:24:56;;;;;;;42.60;21.48;;;;;;;17.13;61.38;95233.25;5030766;28;20018;-74
2021/08/28 04:27:21;;;;;;;53.70;23.15;;;;;;;16.54;63.26;95211.63;5028128;28;20045;-75
2021/08/28 04:29:47;;;;;;;47.67;21.85;;;;;;;16.63;63.48;95233.75;5028955;28;20120;-74
2021/08/28 04:32:12;;;;;;;39.53;20.25;;;;;;;17.39;61.45;95248.16;5030348;28;20045;-74
2021/08/28 04:34:37;;;;;;;39.88;21.05;;;;;;;17.18;61.98;95244.91;5029960;28;20067;-74
2021/08/28 04:37:03;;;;;;;43.08;20.45;;;;;;;17.18;62.24;95266.41;5030447;28;20129;-73
2021/08/28 04:39:28;;;;;;;51.83;22.60;;;;;;;17.13;62.52;95245.91;5044347;28;20395;-72
2021/08/28 04:41:53;;;;;;;61.60;24.88;;;;;;;17.64;61.65;95228.06;5028146;28;20037;-74
2021/08/28 04:44:19;;;;;;;75.10;27.40;;;;;;;18.13;60.75;95238.50;5028051;28;20083;-72
2021/08/28 04:46:44;;;;;;;48.03;21.23;;;;;;;17.33;61.51;95238.78;5043867;28;20104;-75
2021/08/28 04:49:09;;;;;;;45.85;21.55;;;;;;;17.50;61.59;95253.81;5030360;28;20029;-73
2021/08/28 04:51:35;;;;;;;49.30;22.42;;;;;;;17.11;62.03;95251.66;5029215;28;20049;-74
2021/08/28 04:54:01;;;;;;;46.70;20.95;;;;;;;16.89;62.57;95242.22;5029252;28;20053;-74
2021/08/28 04:56:26;;;;;;;47.75;22.17;;;;;;;16.58;63.34;95242.03;5028154;28;20049;-74
2021/08/28 04:58:51;;;;;;;55.72;23.77;;;;;;;16.61;64.55;95263.63;5027247;28;20044;-72
2021/08/28 05:01:17;;;;;;;51.05;21.95;;;;;;;16.24;65.29;95243.34;5031271;28;20540;-74
2021/08/28 05:03:42;;;;;;;53.45;23.08;;;;;;;17.14;63.64;95275.13;5028192;28;20041;-73
2021/08/28 05:06:09;;;;;;;56.28;23.23;;;;;;;16.80;63.15;95248.84;5028777;28;20380;-74
2021/08/28 05:08:34;;;;;;;59.45;24.08;;;;;;;16.79;64.13;95255.34;5028351;28;20049;-74
2021/08/28 05:11:01;;;;;;;54.65;23.38;;;;;;;17.08;63.01;95281.09;5029008;28;20050;-73
2021/08/28 05:13:26;;;;;;;46.95;22.67;;;;;;;16.74;63.76;95242.16;5028205;28;20029;-73
2021/08/28 05:15:53;;;;;;;52.65;23.33;;;;;;;17.20;62.43;95256.88;5045923;28;20454;-73
2021/08/28 05:18:18;;;;;;;57.72;24.85;;;;;;;17.29;62.18;95260.19;5029043;28;20092;-73
2021/08/28 05:20:44;;;;;;;68.90;28.10;;;;;;;17.79;61.66;95225.75;5027773;28;20041;-73
2021/08/28 05:23:09;;;;;;;63.83;28.05;;;;;;;18.11;60.76;95240.75;5027105;28;20050;-73
2021/08/28 05:25:34;;;;;;;58.10;26.52;;;;;;;18.04;60.04;95250.56;5027353;28;20017;-73
2021/08/28 05:28:00;;;;;;;55.25;23.40;;;;;;;17.22;62.16;95254.63;5029117;28;20031;-73
2021/08/28 05:30:25;;;;;;;40.10;21.73;;;;;;;17.34;60.91;95270.69;5028890;28;20186;-73
2021/08/28 05:32:50;;;;;;;43.47;22.48;;;;;;;17.44;61.17;95222.91;5027533;28;20388;-74
2021/08/28 05:35:16;;;;;;;58.33;26.08;;;;;;;18.11;60.77;95283.81;5027418;28;20065;-73
2021/08/28 05:37:41;;;;;;;57.80;26.30;;;;;;;17.74;60.63;95285.19;5026502;28;20116;-74
2021/08/28 05:40:08;;;;;;;58.65;27.58;;;;;;;17.02;63.58;95260.97;5030927;28;20021;-73
2021/08/28 05:42:35;;;;;;;64.43;26.90;;;;;;;17.96;61.72;95281.91;5028011;28;20042;-73
2021/08/28 05:45:01;;;;;;;68.85;29.23;;;;;;;17.66;61.86;95273.47;5042785;28;20042;-73
2021/08/28 05:47:26;;;;;;;38.17;20.90;;;;;;;15.75;65.82;95254.81;5026967;28;20036;-74
2021/08/28 05:49:51;;;;;;;86.38;31.90;;;;;;;17.03;63.57;95223.00;5027179;28;20030;-73
2021/08/28 05:52:17;;;;;;;66.68;30.35;;;;;;;16.99;63.34;95230.19;5029832;28;20030;-74
2021/08/28 05:54:42;;;;;;;56.92;26.95;;;;;;;16.94;64.24;95276.13;5028568;28;20551;-74
2021/08/28 05:57:08;;;;;;;55.83;25.70;;;;;;;16.31;65.51;95273.84;5025831;28;20075;-74
2021/08/28 05:59:33;;;;;;;76.97;30.58;;;;;;;17.08;64.18;95262.28;5027089;28;20029;-73
2021/08/28 06:01:58;;;;;;;68.00;29.30;;;;;;;17.49;62.64;95250.34;5026110;28;20675;-73
2021/08/28 06:04:24;;;;;;;58.95;26.25;;;;;;;17.11;62.70;95248.19;5029036;28;20025;-73
2021/08/28 06:06:49;;;;;;;72.85;30.58;;;;;;;18.21;61.89;95247.50;5028238;28;20060;-73
2021/08/28 06:09:14;;;;;;;60.55;27.10;;;;;;;18.30;61.53;95242.72;5027195;28;20506;-73
2021/08/28 06:11:40;;;;;;;46.70;23.85;;;;;;;17.91;59.76;95261.44;5027172;28;20042;-73
2021/08/28 06:14:05;;;;;;;54.70;25.27;;;;;;;17.70;61.21;95252.78;5025378;28;20033;-73
2021/08/28 06:16:30;;;;;;;52.00;25.45;;;;;;;17.60;61.41;95218.31;5026679;28;20028;-73
2021/08/28 06:18:58;;;;;;;37.65;21.00;;;;;;;16.75;63.69;95251.78;5046006;28;20030;-74
2021/08/28 06:21:24;;;;;;;34.47;18.95;;;;;;;16.69;63.89;95274.59;5026600;28;20049;-76
2021/08/28 06:23:50;;;;;;;15.10;12.13;;;;;;;15.90;65.56;95266.81;5043598;28;20041;-74
2021/08/28 06:26:15;;;;;;;19.60;14.10;;;;;;;16.53;64.97;95264.56;5027324;28;20040;-73
2021/08/28 06:28:41;;;;;;;10.45;9.05;;;;;;;16.58;64.11;95293.88;5026021;28;20029;-74
2021/08/28 06:31:06;;;;;;;7.75;5.97;;;;;;;15.28;66.72;95255.16;5030098;28;20105;-73
2021/08/28 06:33:31;;;;;;;11.38;8.90;;;;;;;16.80;63.77;95281.09;5026481;28;20546;-73
2021/08/28 06:35:57;;;;;;;8.52;7.00;;;;;;;16.96;62.59;95247.00;5027174;28;20049;-73
2021/08/28 06:38:22;;;;;;;8.95;8.05;;;;;;;17.24;61.67;95240.84;5026380;28;20041;-72
2021/08/28 06:40:48;;;;;;;6.45;5.85;;;;;;;16.27;63.41;95266.81;5027882;28;20519;-72
2021/08/28 06:43:13;;;;;;;7.47;6.47;;;;;;;16.64;63.81;95276.41;5027994;28;20030;-71
2021/08/28 06:45:38;;;;;;;5.72;5.18;;;;;;;16.92;61.79;95264.94;5042499;28;20029;-71
2021/08/28 06:48:04;;;;;;;9.88;6.20;;;;;;;17.42;61.57;95260.91;5027842;28;20046;-72
2021/08/28 06:50:29;;;;;;;5.90;5.30;;;;;;;17.10;61.87;95236.66;5027381;28;20483;-72
2021/08/28 06:52:55;;;;;;;10.13;6.00;;;;;;;18.23;57.95;95212.19;5027636;28;20049;-71
2021/08/28 06:55:20;;;;;;;5.30;3.42;;;;;;;16.84;60.28;95234.41;5029653;28;20028;-71
2021/08/28 06:57:45;;;;;;;5.55;4.05;;;;;;;18.07;59.81;95282.97;5026873;28;20437;-72
2021/08/28 07:00:12;;;;;;;4.15;3.75;;;;;;;17.79;58.71;95263.41;5027413;28;20045;-72
2021/08/28 07:02:38;;;;;;;3.75;3.40;;;;;;;19.01;57.92;95269.66;5027832;28;20068;-71
2021/08/28 07:05:04;;;;;;;4.47;4.13;;;;;;;18.38;57.47;95282.16;5029564;28;20419;-73
2021/08/28 07:07:30;;;;;;;3.53;3.22;;;;;;;17.82;59.59;95249.28;5045875;28;20128;-72
2021/08/28 07:09:56;;;;;;;4.20;3.80;;;;;;;18.48;58.48;95275.44;5032079;28;20175;-72
2021/08/28 07:12:21;;;;;;;3.65;3.35;;;;;;;17.78;59.32;95265.34;5030758;28;20053;-72
2021/08/28 07:14:46;;;;;;;5.10;3.55;;;;;;;17.26;59.77;95273.53;5030630;28;20132;-73
2021/08/28 07:17:12;;;;;;;3.40;3.15;;;;;;;17.62;60.13;95251.06;5029507;28;20045;-71
2021/08/28 07:19:37;;;;;;;3.28;2.67;;;;;;;18.41;57.06;95265.28;5031077;28;20108;-72
2021/08/28 07:22:03;;;;;;;3.25;2.70;;;;;;;18.44;57.81;95264.59;5032920;28;20498;-73
2021/08/28 07:24:28;;;;;;;3.40;3.10;;;;;;;17.42;60.58;95268.97;5030208;28;20491;-72
2021/08/28 07:26:53;;;;;;;2.72;2.53;;;;;;;17.84;59.87;95285.47;5045362;28;20060;-72
2021/08/28 07:29:19;;;;;;;3.28;3.00;;;;;;;18.60;58.18;95244.91;5030478;28;20046;-71
2021/08/28 07:31:45;;;;;;;3.08;2.88;;;;;;;19.18;56.01;95274.63;5030711;28;20029;-72
2021/08/28 07:34:10;;;;;;;2.83;2.63;;;;;;;18.41;58.11;95243.72;5031229;28;20052;-72
2021/08/28 07:36:36;;;;;;;3.15;2.88;;;;;;;18.46;59.21;95275.00;5030308;28;20064;-72
2021/08/28 07:39:02;;;;;;;3.20;2.90;;;;;;;17.86;60.19;95280.53;5030682;28;20030;-69
2021/08/28 07:41:27;;;;;;;3.05;2.85;;;;;;;18.78;57.13;95256.09;5028453;28;20065;-72
2021/08/28 07:43:53;;;;;;;2.72;2.53;;;;;;;18.23;58.12;95226.41;5029796;28;20064;-67
2021/08/28 07:46:18;;;;;;;2.70;2.50;;;;;;;18.54;57.18;95284.81;5032150;28;20026;-70
2021/08/28 07:48:43;;;;;;;2.67;2.47;;;;;;;18.75;57.92;95256.81;5044616;28;20042;-67
2021/08/28 07:51:09;;;;;;;2.97;2.78;;;;;;;19.07;55.28;95279.03;5045857;28;20048;-69
2021/08/28 07:53:35;;;;;;;2.70;2.50;;;;;;;18.40;58.71;95290.66;5030156;28;20068;-70
2021/08/28 07:56:00;;;;;;;2.85;2.60;;;;;;;19.14;55.74;95274.56;5029731;28;20069;-70
2021/08/28 07:58:26;;;;;;;2.70;2.50;;;;;;;19.04;55.33;95237.41;5029034;28;20120;-72
2021/08/28 08:00:51;;;;;;;2.60;2.40;;;;;;;17.98;56.72;95273.50;5031924;28;20606;-72
2021/08/28 08:03:16;;;;;;;2.85;2.65;;;;;;;20.23;55.13;95247.19;5028533;28;20231;-70
2021/08/28 08:05:42;;;;;;;2.72;2.47;;;;;;;19.71;53.71;95237.09;5029624;28;20041;-72
2021/08/28 08:08:08;;;;;;;2.30;2.10;;;;;;;20.97;51.48;95260.22;5045453;28;20061;-68
2021/08/28 08:10:33;;;;;;;2.28;2.08;;;;;;;22.41;48.02;95297.66;5029706;28;20426;-70
2021/08/28 08:12:59;;;;;;;2.20;2.10;;;;;;;20.91;49.50;95293.34;5031325;28;20083;-70
2021/08/28 08:15:25;;;;;;;2.10;2.00;;;;;;;19.35;52.38;95246.44;5028464;28;20029;-68
2021/08/28 08:17:51;;;;;;;2.22;2.13;;;;;;;19.64;52.20;95239.66;5029516;28;20041;-66
2021/08/28 08:20:16;;;;;;;2.75;2.55;;;;;;;19.98;51.30;95271.09;5029985;28;20037;-68
2021/08/28 08:22:43;;;;;;;2.33;2.20;;;;;;;19.98;52.13;95287.31;5029656;28;20033;-67
2021/08/28 08:25:09;;;;;;;2.60;2.40;;;;;;;18.47;54.72;95240.75;5031313;28;20049;-67
2021/08/28 08:27:34;;;;;;;2.85;2.53;;;;;;;18.27;54.23;95250.72;5029217;28;20064;-67
2021/08/28 08:29:59;;;;;;;2.50;2.30;;;;;;;19.34;52.66;95228.69;5029258;28;20044;-67
2021/08/28 08:32:25;;;;;;;2.65;2.45;;;;;;;17.63;57.12;95231.88;5029424;28;20453;-67
2021/08/28 08:34:53;;;;;;;2.60;2.40;;;;;;;18.25;55.52;95271.81;5029232;28;20046;-67
2021/08/28 08:37:18;;;;;;;2.42;2.22;;;;;;;19.20;52.92;95240.78;5031188;28;20021;-67
2021/08/28 08:39:44;;;;;;;2.30;2.17;;;;;;;19.92;52.20;95244.78;5029290;28;20049;-67
2021/08/28 08:42:11;;;;;;;2.47;2.28;;;;;;;20.76;50.02;95243.72;5028145;28;20048;-67
2021/08/28 08:44:38;;;;;;;2.53;2.33;;;;;;;19.64;51.63;95231.56;5028391;28;20103;-67
2021/08/28 08:47:03;;;;;;;2.65;2.35;;;;;;;19.80;53.16;95302.41;5043935;28;20434;-67
2021/08/28 08:49:30;;;;;;;2.20;2.10;;;;;;;19.98;50.53;95260.31;5029054;28;20026;-67
2021/08/28 08:51:57;;;;;;;2.15;1.95;;;;;;;20.48;50.44;95308.97;5031250;28;20032;-67
2021/08/28 08:54:22;;;;;;;2.10;1.90;;;;;;;22.31;47.06;95242.25;5028662;28;20049;-67
2021/08/28 08:56:47;;;;;;;2.72;1.95;;;;;;;21.42;48.24;95293.63;5028705;28;20041;-67
2021/08/28 08:59:13;;;;;;;2.00;1.90;;;;;;;21.83;48.42;95244.16;5028190;28;20503;-67
2021/08/28 09:01:39;;;;;;;2.28;1.63;;;;;;;19.76;48.49;95265.69;5027512;28;20034;-67
2021/08/28 09:04:04;;;;;;;1.73;1.55;;;;;;;19.69;49.59;95240.16;5030698;28;20060;-67
2021/08/28 09:06:30;;;;;;;2.17;1.58;;;;;;;18.93;51.09;95234.47;5028308;28;20484;-66
2021/08/28 09:08:55;;;;;;;3.08;1.85;;;;;;;19.86;49.57;95227.31;5028660;28;20034;-67
2021/08/28 09:11:24;;;;;;;1.70;1.60;;;;;;;20.31;49.79;95299.41;5028175;28;20045;-67
2021/08/28 09:13:51;;;;;;;2.08;1.60;;;;;;;18.41;54.07;95251.03;5028208;28;20042;-67
2021/08/28 09:16:31;;;;;;;2.17;1.80;;;;;;;19.73;51.64;95294.97;5030026;28;20025;-68
2021/08/28 09:18:58;;;;;;;1.55;1.42;;;;;;;21.65;47.66;95304.34;5028520;28;20510;-68
2021/08/28 09:21:30;;;;;;;2.35;1.63;;;;;;;20.08;48.42;95277.81;5027353;28;20056;-70
2021/08/28 09:24:06;;;;;;;;;;;;;;;21.11;47.86;95299.41;5028154;28;20052;-62
2021/08/28 09:26:38;;;;;;;1.70;1.60;;;;;;;20.57;48.80;95287.06;5028228;28;19917;-66
2021/08/28 09:29:05;;;;;;;2.28;1.40;;;;;;;20.34;47.76;95255.47;5025811;28;20083;-67
2021/08/28 09:31:47;;;;;;;1.98;1.30;;;;;;;20.05;47.98;95256.94;5028056;28;20380;-67
2021/08/28 09:34:24;;;;;;;1.85;1.65;;;;;;;19.64;49.92;95270.13;5030326;28;20031;-67
2021/08/28 09:37:27;;;;;;;1.20;1.15;;;;;;;21.68;46.22;95240.53;5027845;28;20072;-67
2021/08/28 09:39:53;;;;;;;1.50;1.40;;;;;;;20.56;46.86;95290.94;5016208;28;20064;-66
2021/08/28 09:42:21;;;;;;;1.98;1.50;;;;;;;20.04;48.82;95255.38;5027948;28;20656;-67
2021/08/28 09:44:48;;;;;;;2.58;1.40;;;;;;;21.32;45.82;95267.22;5027231;28;20060;-67
2021/08/28 09:47:13;;;;;;;1.55;1.35;;;;;;;22.18;45.76;95311.44;5027628;28;20237;-67
2021/08/28 09:49:40;;;;;;;1.75;1.65;;;;;;;23.91;42.77;95285.63;5027616;28;20603;-66
2021/08/28 09:52:09;;;;;;;1.52;1.27;;;;;;;23.26;39.54;95257.50;5030438;28;20033;-74
2021/08/28 09:54:37;;;;;;;1.25;1.15;;;;;;;23.91;40.68;95301.94;5027988;28;20047;-69
2021/08/28 09:57:03;;;;;;;1.35;1.25;;;;;;;23.90;39.08;95264.25;5043208;28;20153;-67
2021/08/28 09:59:29;;;;;;;1.67;1.10;;;;;;;25.03;38.92;95241.66;5027613;28;20140;-67
2021/08/28 10:01:54;;;;;;;1.27;1.17;;;;;;;24.19;38.53;95257.69;5027733;28;20136;-67
2021/08/28 10:04:20;;;;;;;1.65;1.10;;;;;;;23.15;40.35;95299.34;5029925;28;20018;-68
2021/08/28 10:06:46;;;;;;;1.95;1.20;;;;;;;23.78;39.68;95293.34;5026374;28;20041;-65
2021/08/28 10:09:17;;;;;;;1.38;1.20;;;;;;;24.69;37.32;95275.94;5027304;28;20538;-67
2021/08/28 10:11:46;;;;;;;2.50;1.52;;;;;;;24.15;38.68;95234.41;5027717;28;20659;-67
2021/08/28 10:14:20;;;;;;;1.58;1.48;;;;;;;23.02;41.49;95266.31;5042928;28;20049;-73
2021/08/28 10:16:47;;;;;;;2.40;1.63;;;;;;;24.43;39.32;95279.88;5026482;28;20049;-75
2021/08/28 10:19:15;;;;;;;1.70;1.60;;;;;;;24.20;39.91;95288.34;5030959;28;20410;-72
2021/08/28 10:21:46;;;;;;;1.40;1.30;;;;;;;22.90;42.18;95228.69;5027954;28;20046;-69
2021/08/28 10:24:15;;;;;;;1.70;1.60;;;;;;;22.72;42.13;95296.34;5027387;28;20033;-73
2021/08/28 10:26:44;;;;;;;1.63;1.52;;;;;;;21.50;44.81;95294.50;5027108;28;20030;-68
2021/08/28 10:29:13;;;;;;;1.67;1.55;;;;;;;22.30;42.90;95273.97;5026736;28;20076;-67
2021/08/28 10:31:40;;;;;;;1.27;1.17;;;;;;;22.07;42.70;95289.66;5027738;28;20013;-73
2021/08/28 10:34:06;;;;;;;1.95;1.00;;;;;;;22.89;41.97;95259.69;5029764;28;20655;-72
2021/08/28 10:36:32;;;;;;;1.17;1.02;;;;;;;25.02;39.36;95271.97;5026523;28;20033;-70
2021/08/28 10:38:58;;;;;;;1.10;1.10;;;;;;;23.81;39.18;95267.38;5030710;28;20488;-70
2021/08/28 10:41:24;;;;;;;1.10;1.00;;;;;;;25.45;37.50;95266.41;5031678;28;20045;-70
2021/08/28 10:43:51;;;;;;;3.13;1.00;;;;;;;24.88;37.40;95265.41;5031159;28;20379;-68
2021/08/28 10:46:22;;;;;;;0.93;0.90;;;;;;;24.18;37.17;95220.81;5033041;28;20034;-68
2021/08/28 10:48:51;;;;;;;1.75;0.70;;;;;;;25.04;36.71;95283.25;5032515;28;20038;-76
2021/08/28 10:51:22;;;;;;;0.85;0.60;;;;;;;24.56;36.78;95272.84;5033005;28;20059;-77
2021/08/28 10:53:52;;;;;;;0.73;0.50;;;;;;;24.17;37.76;95289.94;5032064;28;20410;-76
2021/08/28 10:56:18;;;;;;;0.98;0.85;;;;;;;22.45;37.59;95282.22;5031664;28;20046;-77
2021/08/28 10:58:43;;;;;;;1.77;0.57;;;;;;;24.03;35.57;95281.75;5032656;28;20501;-75
2021/08/28 11:01:08;;;;;;;0.80;0.52;;;;;;;22.62;38.09;95292.41;5034163;28;20088;-79
2021/08/28 11:03:35;;;;;;;1.88;0.63;;;;;;;22.44;39.41;95283.38;5032017;28;20033;-75
2021/08/28 11:06:13;;;;;;;0.40;0.40;;;;;;;22.79;39.62;95290.97;5047813;28;20041;-70
2021/08/28 11:08:52;;;;;;;1.48;0.60;;;;;;;23.29;37.69;95285.84;5031919;28;20396;-73
2021/08/28 11:11:39;;;;;;;0.60;0.60;;;;;;;23.97;37.56;95294.19;5032413;28;20026;-73
2021/08/28 11:14:10;;;;;;;0.75;0.75;;;;;;;24.81;35.66;95279.00;5029609;28;20175;-74
2021/08/28 11:16:44;;;;;;;0.68;0.68;;;;;;;25.10;35.63;95284.41;5031881;28;20025;-75
2021/08/28 11:19:13;;;;;;;2.70;1.05;;;;;;;23.92;36.15;95289.13;5034732;28;20030;-75
2021/08/28 11:21:47;;;;;;;0.88;0.60;;;;;;;23.82;35.00;95280.56;5032214;28;20038;-76
2021/08/28 11:24:18;;;;;;;0.73;0.73;;;;;;;22.82;37.65;95285.56;5031735;28;20059;-71
2021/08/28 11:26:47;;;;;;;;;;;;;;;22.62;38.97;95297.03;5046977;28;20096;-85